createdAt,value
2023-04-02T00:00:11.223Z,1.60
2023-04-02T00:02:58.879Z,2.07
2023-04-02T00:05:31.770Z,2.10
2023-04-02T00:08:03.959Z,1.80
2023-04-02T00:10:39.882Z,1.90
2023-04-02T00:13:12.393Z,2.00
2023-04-02T00:15:40.966Z,1.97
2023-04-02T00:18:13.216Z,1.90
2023-04-02T00:20:43.880Z,1.80
2023-04-02T00:23:14.994Z,2.00
2023-04-02T00:25:45.473Z,2.10
2023-04-02T00:28:17.980Z,1.97
2023-04-02T00:30:47.671Z,2.20
2023-04-02T00:33:20.334Z,2.47
2023-04-02T00:35:48.891Z,2.87
2023-04-02T00:38:24.965Z,3.23
2023-04-02T00:40:54.620Z,2.83
2023-04-02T00:43:24.965Z,3.20
2023-04-02T00:45:56.037Z,2.97
2023-04-02T00:48:31.795Z,2.70
2023-04-02T00:51:08.234Z,2.87
2023-04-02T00:53:36.229Z,2.90
2023-04-02T00:56:11.828Z,3.47
2023-04-02T00:58:38.594Z,3.50
2023-04-02T01:01:16.952Z,2.97
2023-04-02T01:03:45.033Z,3.27
2023-04-02T01:06:15.906Z,3.40
2023-04-02T01:08:48.495Z,3.20
2023-04-02T01:11:46.079Z,3.33
2023-04-02T01:14:36.572Z,3.93
2023-04-02T01:17:26.579Z,3.40
2023-04-02T01:20:15.316Z,3.70
2023-04-02T01:22:50.599Z,4.00
2023-04-02T01:25:26.694Z,4.27
2023-04-02T01:28:21.032Z,3.93
2023-04-02T01:30:57.180Z,4.00
2023-04-02T01:33:30.401Z,4.40
2023-04-02T01:36:23.196Z,3.80
2023-04-02T01:39:21.061Z,4.10
2023-04-02T01:42:10.350Z,3.73
2023-04-02T01:44:46.434Z,4.50
2023-04-02T01:47:17.179Z,4.47
2023-04-02T01:49:44.715Z,4.90
2023-04-02T01:52:38.074Z,4.50
2023-04-02T01:55:06.434Z,4.90
2023-04-02T01:57:33.371Z,4.77
2023-04-02T02:00:01.886Z,4.50
2023-04-02T02:02:28.986Z,4.57
2023-04-02T02:04:55.891Z,4.77
2023-04-02T02:07:24.170Z,4.83
2023-04-02T02:09:51.789Z,5.10
2023-04-02T02:12:18.719Z,5.27
2023-04-02T02:14:52.488Z,5.33
2023-04-02T02:17:26.936Z,5.07
2023-04-02T02:19:58.628Z,4.97
2023-04-02T02:22:36.111Z,5.13
2023-04-02T02:25:06.816Z,5.77
2023-04-02T02:27:43.153Z,4.57
2023-04-02T02:30:28.875Z,5.03
2023-04-02T02:33:10.350Z,4.57
2023-04-02T02:36:05.081Z,5.50
2023-04-02T02:38:34.958Z,6.13
2023-04-02T02:41:07.701Z,5.47
2023-04-02T02:43:38.903Z,6.03
2023-04-02T02:46:08.023Z,5.90
2023-04-02T02:48:38.970Z,5.57
2023-04-02T02:51:15.589Z,5.50
2023-04-02T02:53:56.479Z,6.20
2023-04-02T02:56:24.641Z,5.83
2023-04-02T02:58:53.324Z,6.30
2023-04-02T03:01:20.517Z,6.37
2023-04-02T03:03:48.909Z,6.37
2023-04-02T03:06:17.296Z,6.47
2023-04-02T03:08:51.715Z,7.27
2023-04-02T03:11:40.963Z,6.73
2023-04-02T03:14:42.651Z,6.30
2023-04-02T03:17:34.704Z,6.20
2023-04-02T03:20:06.924Z,6.60
2023-04-02T03:22:43.926Z,6.47
2023-04-02T03:25:34.641Z,5.87
2023-04-02T03:28:06.247Z,5.63
2023-04-02T03:30:44.652Z,5.40
2023-04-02T03:33:22.013Z,5.83
2023-04-02T03:36:05.208Z,5.87
2023-04-02T03:38:41.943Z,6.33
2023-04-02T03:41:41.536Z,6.40
2023-04-02T03:44:33.134Z,6.93
2023-04-02T03:47:18.023Z,6.67
2023-04-02T03:49:53.023Z,6.70
2023-04-02T03:52:29.893Z,7.03
2023-04-02T03:54:59.036Z,6.57
2023-04-02T03:57:34.600Z,7.37
2023-04-02T04:00:14.323Z,7.37
2023-04-02T04:02:53.914Z,6.40
2023-04-02T04:05:48.307Z,6.07
2023-04-02T04:08:20.479Z,6.67
2023-04-02T04:10:52.444Z,7.03
2023-04-02T04:13:28.792Z,7.60
2023-04-02T04:16:09.583Z,7.20
2023-04-02T04:18:49.353Z,7.03
2023-04-02T04:21:37.083Z,6.87
2023-04-02T04:24:16.213Z,6.47
2023-04-02T04:27:03.711Z,7.20
2023-04-02T04:29:45.469Z,6.47
2023-04-02T04:32:27.788Z,6.83
2023-04-02T04:35:01.072Z,7.00
2023-04-02T04:37:35.189Z,7.40
2023-04-02T04:40:23.997Z,7.23
2023-04-02T04:42:54.882Z,6.80
2023-04-02T04:45:27.418Z,6.83
2023-04-02T04:48:02.947Z,6.83
2023-04-02T04:50:38.638Z,7.03
2023-04-02T04:53:07.466Z,6.90
2023-04-02T04:55:48.994Z,6.60
2023-04-02T04:58:26.554Z,6.53
2023-04-02T05:01:16.703Z,7.40
2023-04-02T05:04:09.225Z,7.80
2023-04-02T05:06:53.615Z,7.03
2023-04-02T05:09:41.504Z,6.03
2023-04-02T05:12:37.647Z,6.53
2023-04-02T05:15:22.728Z,5.77
2023-04-02T05:18:17.548Z,6.20
2023-04-02T05:20:53.665Z,6.37
2023-04-02T05:23:31.124Z,9.00
2023-04-02T05:26:36.011Z,7.27
2023-04-02T05:29:24.274Z,5.77
2023-04-02T05:32:03.560Z,5.37
2023-04-02T05:34:33.990Z,6.30
2023-04-02T05:37:00.937Z,5.67
2023-04-02T05:39:28.242Z,5.97
2023-04-02T05:42:08.404Z,6.33
2023-04-02T05:44:41.712Z,4.67
2023-04-02T05:47:14.962Z,1.40
2023-04-02T05:49:48.226Z,0.93
2023-04-02T05:52:29.920Z,0.87
2023-04-02T05:55:05.566Z,0.80
2023-04-02T05:57:45.829Z,0.77
2023-04-02T06:00:45.365Z,0.37
2023-04-02T06:03:40.349Z,0.50
2023-04-02T06:06:39.548Z,0.50
2023-04-02T06:09:32.689Z,0.43
2023-04-02T06:12:27.785Z,0.60
2023-04-02T06:14:54.605Z,0.70
2023-04-02T06:17:22.368Z,0.60
2023-04-02T06:19:51.034Z,0.60
2023-04-02T06:22:39.486Z,0.60
2023-04-02T06:25:17.884Z,1.00
2023-04-02T06:27:46.222Z,0.70
2023-04-02T06:30:28.257Z,0.60
2023-04-02T06:32:54.995Z,0.87
2023-04-02T06:35:21.917Z,0.50
2023-04-02T06:37:53.057Z,0.60
2023-04-02T06:40:31.870Z,0.57
2023-04-02T06:43:01.427Z,0.50
2023-04-02T06:45:35.472Z,0.50
2023-04-02T06:48:03.802Z,0.80
2023-04-02T06:50:38.891Z,0.53
2023-04-02T06:53:11.714Z,0.67
2023-04-02T06:56:00.820Z,0.50
2023-04-02T06:58:27.468Z,0.50
2023-04-02T07:00:54.859Z,0.50
2023-04-02T07:03:31.759Z,0.40
2023-04-02T07:06:01.851Z,0.50
2023-04-02T07:08:28.707Z,0.50
2023-04-02T07:10:56.344Z,0.40
2023-04-02T07:13:24.199Z,0.50
2023-04-02T07:15:53.388Z,0.50
2023-04-02T07:18:30.041Z,0.40
2023-04-02T07:20:57.203Z,0.30
2023-04-02T07:23:24.186Z,0.53
2023-04-02T07:25:52.927Z,0.50
2023-04-02T07:28:22.381Z,0.50
2023-04-02T07:30:50.558Z,0.70
2023-04-02T07:33:19.448Z,0.50
2023-04-02T07:35:46.642Z,0.40
2023-04-02T07:38:13.432Z,0.47
2023-04-02T07:40:40.261Z,0.40
2023-04-02T07:43:07.436Z,0.50
2023-04-02T07:45:34.846Z,0.40
2023-04-02T07:48:09.226Z,0.50
2023-04-02T07:50:36.735Z,0.50
2023-04-02T07:53:04.380Z,0.70
2023-04-02T07:55:31.291Z,0.70
2023-04-02T07:57:59.681Z,0.53
2023-04-02T08:00:28.642Z,0.53
2023-04-02T08:02:55.487Z,0.70
2023-04-02T08:05:22.627Z,0.53
2023-04-02T08:07:57.083Z,0.60
2023-04-02T08:10:24.766Z,0.60
2023-04-02T08:12:51.709Z,0.70
2023-04-02T08:15:18.727Z,0.70
2023-04-02T08:17:45.675Z,0.60
2023-04-02T08:20:18.154Z,0.50
2023-04-02T08:22:49.458Z,0.47
2023-04-02T08:25:17.040Z,0.60
2023-04-02T08:27:46.432Z,0.67
2023-04-02T08:30:16.618Z,0.97
2023-04-02T08:32:43.905Z,0.70
2023-04-02T08:35:13.355Z,0.40
2023-04-02T08:37:40.607Z,0.47
2023-04-02T08:40:15.560Z,0.40
2023-04-02T08:43:11.412Z,0.40
2023-04-02T08:46:25.774Z,0.60
2023-04-02T08:49:01.337Z,0.70
2023-04-02T08:51:31.868Z,0.90
2023-04-02T08:54:21.576Z,0.70
2023-04-02T08:57:27.202Z,1.90
2023-04-02T09:00:10.095Z,0.70
2023-04-02T09:02:41.774Z,0.70
2023-04-02T09:05:22.975Z,1.40
2023-04-02T09:07:52.565Z,1.10
2023-04-02T09:10:19.802Z,0.70
2023-04-02T09:12:51.961Z,1.10
2023-04-02T09:15:36.581Z,1.50
2023-04-02T09:18:15.042Z,0.87
2023-04-02T09:20:42.336Z,0.80
2023-04-02T09:23:28.067Z,0.90
2023-04-02T09:26:04.276Z,0.70
2023-04-02T09:28:31.955Z,0.70
2023-04-02T09:31:20.907Z,0.77
2023-04-02T09:33:49.694Z,0.70
2023-04-02T09:36:38.971Z,2.60
2023-04-02T09:39:07.006Z,2.83
2023-04-02T09:41:37.091Z,1.67
2023-04-02T09:44:25.054Z,0.90
2023-04-02T09:46:59.656Z,1.70
2023-04-02T09:49:29.857Z,2.53
2023-04-02T09:52:15.036Z,2.10
2023-04-02T09:54:41.952Z,1.70
2023-04-02T09:57:38.749Z,1.90
2023-04-02T10:00:10.421Z,0.80
2023-04-02T10:02:47.022Z,1.10
2023-04-02T10:05:36.967Z,0.63
2023-04-02T10:08:28.118Z,1.27
2023-04-02T10:10:59.506Z,1.47
2023-04-02T10:13:35.088Z,0.70
2023-04-02T10:16:12.715Z,1.00
2023-04-02T10:18:46.716Z,0.70
2023-04-02T10:21:18.352Z,0.80
2023-04-02T10:23:45.347Z,0.70
2023-04-02T10:26:11.995Z,0.80
2023-04-02T10:28:42.510Z,0.90
2023-04-02T10:31:37.990Z,0.97
2023-04-02T10:34:16.742Z,0.70
2023-04-02T10:36:55.785Z,0.70
2023-04-02T10:39:53.746Z,1.20
2023-04-02T10:42:32.193Z,1.10
2023-04-02T10:45:03.656Z,0.70
2023-04-02T10:47:41.221Z,1.10
2023-04-02T10:50:29.497Z,0.90
2023-04-02T10:53:17.903Z,0.90
2023-04-02T10:55:57.986Z,1.27
2023-04-02T10:58:31.221Z,1.07
2023-04-02T11:01:17.640Z,0.87
2023-04-02T11:03:54.919Z,0.93
2023-04-02T11:06:28.877Z,0.77
2023-04-02T11:09:04.928Z,0.70
2023-04-02T11:11:38.703Z,0.90
2023-04-02T11:14:10.671Z,1.00
2023-04-02T11:16:40.657Z,0.90
2023-04-02T11:19:17.622Z,1.00
2023-04-02T11:22:00.254Z,1.20
2023-04-02T11:24:32.622Z,0.90
2023-04-02T11:27:29.843Z,1.50
2023-04-02T11:30:24.421Z,1.00
2023-04-02T11:32:51.652Z,1.13
2023-04-02T11:35:30.693Z,1.50
2023-04-02T11:38:04.434Z,1.20
2023-04-02T11:40:51.196Z,1.50
2023-04-02T11:43:32.985Z,1.10
2023-04-02T11:46:38.984Z,1.17
2023-04-02T11:49:40.861Z,1.17
2023-04-02T11:52:32.119Z,1.10
2023-04-02T11:55:02.515Z,1.00
2023-04-02T11:57:52.102Z,1.00
2023-04-02T12:00:37.800Z,1.30
2023-04-02T12:03:46.756Z,1.27
2023-04-02T12:06:25.832Z,1.33
2023-04-02T12:08:58.534Z,2.77
2023-04-02T12:11:37.915Z,2.10
2023-04-02T12:14:30.453Z,1.60
2023-04-02T12:16:57.812Z,3.13
2023-04-02T12:19:26.030Z,1.30
2023-04-02T12:21:53.599Z,1.40
2023-04-02T12:24:23.208Z,1.73
2023-04-02T12:27:06.565Z,1.40
2023-04-02T12:29:33.466Z,4.30
2023-04-02T12:32:00.356Z,1.60
2023-04-02T12:34:29.823Z,1.23
2023-04-02T12:37:03.398Z,1.17
2023-04-02T12:39:32.291Z,1.70
2023-04-02T12:41:59.174Z,1.50
2023-04-02T12:44:28.447Z,1.57
2023-04-02T12:46:57.169Z,3.97
2023-04-02T12:49:23.815Z,2.13
2023-04-02T12:51:51.899Z,2.27
2023-04-02T12:54:20.644Z,1.20
2023-04-02T12:56:48.856Z,1.90
2023-04-02T12:59:40.277Z,1.90
2023-04-02T13:02:26.216Z,1.60
2023-04-02T13:04:56.550Z,2.30
2023-04-02T13:07:25.893Z,1.80
2023-04-02T13:10:05.223Z,2.10
2023-04-02T13:12:40.265Z,1.90
2023-04-02T13:15:17.679Z,1.90
2023-04-02T13:17:44.424Z,2.00
2023-04-02T13:20:30.081Z,2.00
2023-04-02T13:22:57.999Z,2.10
2023-04-02T13:25:34.899Z,2.20
2023-04-02T13:28:02.137Z,1.80
2023-04-02T13:30:29.576Z,1.90
2023-04-02T13:32:56.572Z,2.13
2023-04-02T13:35:23.629Z,2.00
2023-04-02T13:37:50.426Z,2.00
2023-04-02T13:40:19.310Z,1.80
2023-04-02T13:42:47.560Z,1.90
2023-04-02T13:45:24.264Z,2.00
2023-04-02T13:47:51.455Z,2.00
2023-04-02T13:50:20.886Z,1.93
2023-04-02T13:52:50.067Z,2.10
2023-04-02T13:55:19.569Z,1.90
2023-04-02T13:57:46.526Z,2.20
2023-04-02T14:00:13.709Z,1.93
2023-04-02T14:02:46.356Z,2.10
2023-04-02T14:05:13.510Z,2.50
2023-04-02T14:08:11.215Z,2.23
2023-04-02T14:10:47.067Z,2.00
2023-04-02T14:13:20.527Z,1.90
2023-04-02T14:15:58.995Z,2.10
2023-04-02T14:18:26.184Z,2.13
2023-04-02T14:21:04.952Z,1.97
2023-04-02T14:24:08.594Z,1.80
2023-04-02T14:27:04.277Z,1.83
2023-04-02T14:29:54.310Z,1.50
2023-04-02T14:32:39.342Z,1.40
2023-04-02T14:35:18.224Z,1.60
2023-04-02T14:38:03.572Z,1.90
2023-04-02T14:40:50.290Z,1.47
2023-04-02T14:43:22.952Z,1.50
2023-04-02T14:46:04.799Z,1.47
2023-04-02T14:48:55.884Z,1.50
2023-04-02T14:51:31.867Z,1.83
2023-04-02T14:54:34.386Z,1.80
2023-04-02T14:57:11.377Z,1.53
2023-04-02T14:59:57.117Z,1.70
2023-04-02T15:02:39.242Z,1.90
2023-04-02T15:05:22.784Z,1.83
2023-04-02T15:07:55.751Z,1.80
2023-04-02T15:10:28.800Z,1.80
2023-04-02T15:12:57.639Z,1.60
2023-04-02T15:15:40.614Z,1.70
2023-04-02T15:18:13.994Z,2.03
2023-04-02T15:20:49.275Z,2.00
2023-04-02T15:23:45.066Z,1.50
2023-04-02T15:26:41.063Z,1.67
2023-04-02T15:29:41.857Z,2.30
2023-04-02T15:32:23.734Z,2.03
2023-04-02T15:34:58.043Z,1.83
2023-04-02T15:38:00.306Z,1.77
2023-04-02T15:40:57.438Z,1.50
2023-04-02T15:43:31.393Z,2.33
2023-04-02T15:46:13.142Z,1.80
2023-04-02T15:48:56.483Z,3.00
2023-04-02T15:51:41.301Z,2.10
2023-04-02T15:54:40.006Z,1.47
2023-04-02T15:57:39.886Z,1.70
2023-04-02T16:00:30.515Z,2.30
2023-04-02T16:02:58.479Z,2.30
2023-04-02T16:05:28.211Z,1.83
2023-04-02T16:08:22.718Z,1.80
2023-04-02T16:10:49.428Z,1.77
2023-04-02T16:13:34.475Z,1.60
2023-04-02T16:16:31.076Z,2.03
2023-04-02T16:19:15.628Z,2.00
2023-04-02T16:22:02.889Z,2.20
2023-04-02T16:24:29.599Z,1.83
2023-04-02T16:27:05.218Z,2.10
2023-04-02T16:30:15.613Z,2.30
2023-04-02T16:33:10.455Z,2.20
2023-04-02T16:36:14.246Z,2.70
2023-04-02T16:38:49.117Z,2.60
2023-04-02T16:41:35.795Z,2.67
2023-04-02T16:44:20.039Z,2.70
2023-04-02T16:47:12.765Z,2.43
2023-04-02T16:50:07.228Z,3.60
2023-04-02T16:52:42.966Z,2.60
2023-04-02T16:55:12.441Z,2.40
2023-04-02T16:58:11.893Z,2.87
2023-04-02T17:00:51.616Z,3.40
2023-04-02T17:03:47.702Z,2.33
2023-04-02T17:06:36.360Z,2.43
2023-04-02T17:09:11.982Z,2.43
2023-04-02T17:11:49.887Z,2.13
2023-04-02T17:14:42.318Z,2.60
2023-04-02T17:17:12.147Z,2.13
2023-04-02T17:19:40.838Z,3.40
2023-04-02T17:22:16.685Z,2.40
2023-04-02T17:25:04.949Z,2.53
2023-04-02T17:27:33.363Z,2.50
2023-04-02T17:30:15.536Z,2.33
2023-04-02T17:32:42.815Z,2.73
2023-04-02T17:35:36.535Z,2.67
2023-04-02T17:38:32.392Z,2.33
2023-04-02T17:41:06.449Z,2.63
2023-04-02T17:43:39.173Z,2.97
2023-04-02T17:46:20.825Z,3.10
2023-04-02T17:48:53.481Z,3.30
2023-04-02T17:51:37.523Z,2.63
2023-04-02T17:54:16.369Z,2.90
2023-04-02T17:57:13.675Z,2.50
2023-04-02T18:00:11.223Z,2.03
2023-04-02T18:03:01.589Z,2.20
2023-04-02T18:05:45.533Z,2.57
2023-04-02T18:08:24.188Z,2.87
2023-04-02T18:10:53.580Z,3.03
2023-04-02T18:13:46.982Z,2.60
2023-04-02T18:16:13.939Z,1.97
2023-04-02T18:18:56.961Z,2.90
2023-04-02T18:21:44.822Z,2.80
2023-04-02T18:24:29.937Z,2.60
2023-04-02T18:27:14.984Z,2.00
2023-04-02T18:30:06.364Z,2.77
2023-04-02T18:32:39.057Z,4.00
2023-04-02T18:35:23.126Z,3.30
2023-04-02T18:38:24.634Z,2.30
2023-04-02T18:41:08.140Z,3.40
2023-04-02T18:43:42.995Z,3.40
2023-04-02T18:46:33.808Z,2.53
2023-04-02T18:49:03.669Z,3.20
2023-04-02T18:51:36.757Z,2.70
2023-04-02T18:54:03.536Z,2.70
2023-04-02T18:56:31.623Z,2.17
2023-04-02T18:59:07.351Z,1.90
2023-04-02T19:01:39.021Z,2.50
2023-04-02T19:04:30.825Z,1.73
2023-04-02T19:07:04.669Z,1.80
2023-04-02T19:09:38.287Z,1.60
2023-04-02T19:12:16.665Z,1.50
2023-04-02T19:14:43.355Z,1.70
2023-04-02T19:17:16.062Z,1.97
2023-04-02T19:19:48.728Z,1.67
2023-04-02T19:22:21.450Z,1.90
2023-04-02T19:24:59.971Z,1.97
2023-04-02T19:27:52.047Z,1.67
2023-04-02T19:30:18.767Z,1.73
2023-04-02T19:33:20.437Z,2.30
2023-04-02T19:36:29.759Z,2.10
2023-04-02T19:39:17.166Z,2.30
2023-04-02T19:41:53.097Z,1.97
2023-04-02T19:44:20.762Z,1.93
2023-04-02T19:46:47.946Z,2.37
2023-04-02T19:49:23.361Z,2.57
2023-04-02T19:51:50.875Z,2.27
2023-04-02T19:54:18.160Z,2.40
2023-04-02T19:56:45.473Z,2.00
2023-04-02T19:59:18.235Z,2.00
2023-04-02T20:01:46.493Z,2.47
2023-04-02T20:04:13.889Z,2.60
2023-04-02T20:06:40.828Z,2.30
2023-04-02T20:09:08.783Z,2.00
2023-04-02T20:11:37.323Z,2.00
2023-04-02T20:14:05.435Z,1.60
2023-04-02T20:16:33.811Z,3.03
2023-04-02T20:19:00.589Z,2.30
2023-04-02T20:21:27.595Z,2.10
2023-04-02T20:23:55.482Z,1.90
2023-04-02T20:26:22.786Z,2.43
2023-04-02T20:28:49.644Z,3.57
2023-04-02T20:31:18.201Z,3.50
2023-04-02T20:33:45.256Z,2.47
2023-04-02T20:36:16.825Z,3.10
2023-04-02T20:38:45.364Z,2.13
2023-04-02T20:41:12.285Z,2.50
2023-04-02T20:43:40.651Z,3.27
2023-04-02T20:46:10.114Z,3.70
2023-04-02T20:48:38.318Z,2.07
2023-04-02T20:51:07.265Z,3.13
2023-04-02T20:53:35.802Z,2.37
2023-04-02T20:56:11.807Z,2.57
2023-04-02T20:58:39.991Z,4.07
2023-04-02T21:01:19.007Z,2.83
2023-04-02T21:03:46.367Z,2.97
2023-04-02T21:06:15.815Z,3.73
2023-04-02T21:08:43.387Z,2.80
2023-04-02T21:11:10.991Z,3.03
2023-04-02T21:13:37.940Z,2.30
2023-04-02T21:16:12.085Z,2.10
2023-04-02T21:18:38.933Z,2.13
2023-04-02T21:21:06.780Z,2.07
2023-04-02T21:23:33.996Z,2.80
2023-04-02T21:26:04.358Z,2.00
2023-04-02T21:28:31.203Z,2.20
2023-04-02T21:31:03.962Z,1.90
2023-04-02T21:33:31.740Z,1.93
2023-04-02T21:36:06.201Z,1.90
2023-04-02T21:38:33.623Z,1.77
2023-04-02T21:41:22.306Z,1.70
2023-04-02T21:43:49.563Z,1.70
2023-04-02T21:46:18.355Z,2.10
2023-04-02T21:48:45.668Z,1.67
2023-04-02T21:51:26.087Z,1.77
2023-04-02T21:53:56.017Z,1.70
2023-04-02T21:56:28.552Z,1.83
2023-04-02T21:58:57.055Z,1.90
2023-04-02T22:01:28.023Z,1.60
2023-04-02T22:03:56.350Z,1.50
2023-04-02T22:06:24.912Z,1.70
2023-04-02T22:08:57.358Z,1.73
2023-04-02T22:11:44.516Z,2.07
2023-04-02T22:14:12.054Z,2.00
2023-04-02T22:16:40.574Z,1.90
2023-04-02T22:19:13.434Z,1.73
2023-04-02T22:21:42.713Z,2.10
2023-04-02T22:24:16.057Z,1.93
2023-04-02T22:26:43.159Z,1.80
2023-04-02T22:29:09.880Z,1.70
2023-04-02T22:31:36.759Z,2.00
2023-04-02T22:34:04.639Z,2.97
2023-04-02T22:36:31.649Z,2.70
2023-04-02T22:38:59.167Z,2.40
2023-04-02T22:41:29.648Z,2.50
2023-04-02T22:43:57.552Z,2.60
2023-04-02T22:46:26.030Z,2.43
2023-04-02T22:51:27.554Z,1.80
2023-04-02T22:53:55.453Z,2.13
2023-04-02T22:56:26.735Z,2.10
2023-04-02T22:58:53.437Z,2.33
2023-04-02T23:01:25.009Z,1.90
2023-04-02T23:03:54.607Z,2.10
2023-04-02T23:06:22.794Z,1.83
2023-04-02T23:08:51.361Z,2.10
2023-04-02T23:11:21.965Z,2.00
2023-04-02T23:13:51.335Z,1.90
2023-04-02T23:16:19.497Z,2.00
2023-04-02T23:18:48.232Z,1.73
2023-04-02T23:21:16.400Z,2.17
2023-04-02T23:23:43.553Z,1.70
2023-04-02T23:26:15.693Z,1.77
2023-04-02T23:28:42.816Z,2.03
2023-04-02T23:31:13.321Z,2.23
2023-04-02T23:33:40.483Z,2.00
2023-04-02T23:36:14.637Z,1.90
2023-04-02T23:38:41.395Z,1.70
2023-04-02T23:41:08.409Z,2.00
2023-04-02T23:43:35.407Z,1.87
2023-04-02T23:46:02.212Z,1.93
2023-04-02T23:48:31.909Z,2.30
2023-04-02T23:50:58.641Z,2.20
2023-04-02T23:53:25.786Z,2.43
2023-04-02T23:55:52.467Z,2.00
2023-04-02T23:58:19.156Z,2.03
